createdAt,value
2023-01-26T00:01:16.160Z,2.85
2023-01-26T00:03:43.523Z,2.94
2023-01-26T00:06:12.658Z,2.94
2023-01-26T00:08:47.184Z,2.90
2023-01-26T00:11:16.323Z,2.91
2023-01-26T00:13:43.275Z,2.96
2023-01-26T00:16:15.014Z,2.89
2023-01-26T00:18:42.804Z,2.80
2023-01-26T00:21:16.547Z,2.89
2023-01-26T00:23:43.496Z,2.87
2023-01-26T00:26:13.880Z,2.82
2023-01-26T00:28:40.544Z,2.85
2023-01-26T00:31:10.841Z,2.88
2023-01-26T00:33:37.437Z,2.88
2023-01-26T00:36:04.406Z,2.89
2023-01-26T00:38:31.250Z,2.94
2023-01-26T00:40:57.883Z,2.93
2023-01-26T00:43:24.588Z,2.97
2023-01-26T00:45:51.246Z,2.99
2023-01-26T00:48:17.867Z,3.02
2023-01-26T00:50:44.536Z,2.98
2023-01-26T00:53:11.293Z,3.00
2023-01-26T00:55:38.137Z,2.90
2023-01-26T00:58:06.724Z,2.93
2023-01-26T01:00:36.053Z,2.86
2023-01-26T01:03:03.547Z,2.82
2023-01-26T01:05:32.407Z,2.81
2023-01-26T01:07:59.449Z,2.76
2023-01-26T01:10:29.071Z,2.50
2023-01-26T01:12:56.651Z,2.45
2023-01-26T01:15:23.746Z,2.56
2023-01-26T01:17:50.425Z,2.57
2023-01-26T01:20:17.308Z,2.65
2023-01-26T01:22:43.981Z,2.70
2023-01-26T01:25:10.617Z,2.69
2023-01-26T01:27:37.234Z,2.65
2023-01-26T01:30:07.802Z,2.71
2023-01-26T01:32:37.493Z,2.67
2023-01-26T01:35:04.419Z,2.63
2023-01-26T01:37:31.202Z,2.60
2023-01-26T01:39:57.931Z,2.65
2023-01-26T01:42:25.670Z,2.67
2023-01-26T01:45:34.426Z,2.66
2023-01-26T01:48:05.146Z,2.61
2023-01-26T01:50:38.094Z,2.69
2023-01-26T01:53:07.097Z,2.61
2023-01-26T01:55:33.756Z,2.64
2023-01-26T01:58:03.128Z,2.64
2023-01-26T02:00:29.781Z,2.70
2023-01-26T02:03:21.058Z,2.56
2023-01-26T02:06:02.515Z,2.62
2023-01-26T02:08:50.928Z,2.57
2023-01-26T02:11:20.184Z,2.48
2023-01-26T02:13:49.470Z,2.54
2023-01-26T02:16:18.111Z,2.65
2023-01-26T02:18:46.180Z,2.69
2023-01-26T02:21:18.369Z,2.66
2023-01-26T02:23:55.762Z,2.70
2023-01-26T02:26:28.165Z,2.70
2023-01-26T02:28:55.362Z,2.65
2023-01-26T02:31:24.183Z,2.61
2023-01-26T02:33:51.534Z,2.58
2023-01-26T02:36:24.504Z,2.61
2023-01-26T02:39:15.430Z,2.72
2023-01-26T02:42:01.415Z,2.71
2023-01-26T02:44:29.658Z,2.70
2023-01-26T02:46:56.412Z,2.69
2023-01-26T02:49:41.497Z,2.81
2023-01-26T02:52:08.568Z,2.74
2023-01-26T02:54:55.766Z,2.82
2023-01-26T02:57:22.295Z,2.71
2023-01-26T02:59:48.837Z,2.68
2023-01-26T03:02:15.888Z,2.75
2023-01-26T03:04:43.460Z,2.82
2023-01-26T03:07:10.743Z,2.81
2023-01-26T03:09:37.596Z,2.79
2023-01-26T03:12:04.685Z,2.89
2023-01-26T03:14:31.375Z,2.86
2023-01-26T03:16:57.998Z,2.88
2023-01-26T03:19:43.384Z,2.79
2023-01-26T03:22:29.762Z,2.81
2023-01-26T03:25:15.254Z,2.66
2023-01-26T03:27:44.966Z,2.71
2023-01-26T03:30:13.393Z,2.71
2023-01-26T03:32:40.505Z,2.71
2023-01-26T03:35:07.869Z,2.72
2023-01-26T03:37:37.073Z,2.64
2023-01-26T03:40:23.063Z,2.57
2023-01-26T03:43:07.936Z,2.49
2023-01-26T03:45:53.459Z,2.50
2023-01-26T03:48:38.235Z,2.48
2023-01-26T03:51:23.620Z,2.43
2023-01-26T03:54:08.969Z,2.47
2023-01-26T03:56:35.638Z,2.42
2023-01-26T03:59:15.341Z,2.39
2023-01-26T04:02:05.347Z,2.43
2023-01-26T04:04:50.793Z,2.35
2023-01-26T04:07:36.170Z,2.23
2023-01-26T04:10:02.743Z,2.25
2023-01-26T04:12:29.398Z,2.34
2023-01-26T04:15:14.349Z,2.33
2023-01-26T04:17:59.532Z,2.33
2023-01-26T04:20:44.966Z,2.36
2023-01-26T04:23:18.996Z,2.37
2023-01-26T04:25:45.627Z,2.47
2023-01-26T04:28:12.295Z,2.45
2023-01-26T04:30:39.414Z,2.47
2023-01-26T04:33:05.981Z,2.44
2023-01-26T04:35:33.863Z,2.54
2023-01-26T04:38:00.514Z,2.49
2023-01-26T04:40:27.082Z,2.45
2023-01-26T04:42:53.680Z,2.50
2023-01-26T04:45:20.259Z,2.57
2023-01-26T04:47:46.916Z,2.58
2023-01-26T04:50:13.773Z,2.56
2023-01-26T04:52:40.477Z,2.64
2023-01-26T04:55:07.322Z,2.56
2023-01-26T04:57:33.898Z,2.58
2023-01-26T05:00:00.545Z,2.56
2023-01-26T05:02:27.092Z,2.57
2023-01-26T05:04:53.688Z,2.53
2023-01-26T05:07:20.253Z,2.58
2023-01-26T05:09:46.845Z,2.72
2023-01-26T05:12:32.272Z,2.59
2023-01-26T05:14:58.876Z,2.60
2023-01-26T05:17:25.519Z,2.58
2023-01-26T05:19:52.038Z,2.71
2023-01-26T05:22:18.590Z,2.66
2023-01-26T05:24:45.107Z,2.61
2023-01-26T05:27:23.557Z,2.49
2023-01-26T05:29:51.451Z,2.36
2023-01-26T05:32:18.455Z,2.23
2023-01-26T05:34:45.337Z,2.20
2023-01-26T05:37:14.628Z,2.25
2023-01-26T05:39:41.731Z,2.18
2023-01-26T05:42:08.409Z,2.22
2023-01-26T05:44:34.963Z,2.11
2023-01-26T05:47:01.566Z,2.19
2023-01-26T05:49:28.169Z,2.25
2023-01-26T05:51:54.743Z,2.23
2023-01-26T05:54:21.334Z,2.10
2023-01-26T05:56:48.003Z,2.11
2023-01-26T05:59:15.031Z,2.12
2023-01-26T06:01:41.973Z,2.20
2023-01-26T06:04:08.719Z,2.27
2023-01-26T06:06:35.326Z,2.38
2023-01-26T06:09:01.886Z,2.28
2023-01-26T06:11:28.457Z,2.39
2023-01-26T06:13:55.083Z,2.37
2023-01-26T06:16:21.795Z,2.38
2023-01-26T06:18:51.983Z,2.43
2023-01-26T06:21:18.557Z,2.48
2023-01-26T06:23:45.246Z,2.52
2023-01-26T06:26:11.941Z,2.52
2023-01-26T06:28:38.582Z,2.49
2023-01-26T06:31:07.609Z,2.43
2023-01-26T06:33:36.482Z,2.31
2023-01-26T06:36:04.742Z,2.31
2023-01-26T06:38:32.608Z,2.30
2023-01-26T06:41:03.025Z,2.23
2023-01-26T06:43:30.781Z,2.15
2023-01-26T06:45:58.352Z,2.23
2023-01-26T06:48:25.966Z,2.21
2023-01-26T06:50:53.339Z,2.26
2023-01-26T06:53:30.781Z,2.38
2023-01-26T06:55:57.432Z,2.44
2023-01-26T06:58:24.137Z,2.36
2023-01-26T07:00:51.191Z,2.43
2023-01-26T07:03:17.779Z,2.56
2023-01-26T07:05:44.427Z,2.57
2023-01-26T07:08:11.069Z,2.57
2023-01-26T07:10:37.841Z,2.70
2023-01-26T07:13:05.780Z,2.52
2023-01-26T07:15:32.777Z,2.66
2023-01-26T07:18:00.310Z,2.66
2023-01-26T07:20:27.800Z,2.53
2023-01-26T07:22:54.485Z,2.47
2023-01-26T07:25:21.067Z,2.48
2023-01-26T07:27:47.737Z,2.52
2023-01-26T07:30:14.613Z,2.55
2023-01-26T07:32:41.407Z,2.59
2023-01-26T07:35:08.905Z,2.59
2023-01-26T07:37:35.511Z,2.65
2023-01-26T07:40:02.454Z,2.57
2023-01-26T07:42:31.069Z,2.62
2023-01-26T07:44:57.833Z,2.58
2023-01-26T07:47:24.540Z,2.63
2023-01-26T07:49:51.214Z,2.66
2023-01-26T07:52:17.869Z,2.76
2023-01-26T07:54:44.500Z,2.84
2023-01-26T07:57:12.554Z,2.99
2023-01-26T07:59:39.140Z,2.94
2023-01-26T08:02:06.108Z,2.81
2023-01-26T08:04:32.681Z,2.97
2023-01-26T08:06:59.309Z,2.89
2023-01-26T08:09:26.569Z,2.98
2023-01-26T08:11:53.287Z,2.98
2023-01-26T08:14:19.877Z,3.09
2023-01-26T08:16:46.645Z,3.12
2023-01-26T08:19:15.399Z,3.26
2023-01-26T08:21:41.938Z,3.36
2023-01-26T08:24:08.779Z,3.34
2023-01-26T08:26:35.353Z,3.52
2023-01-26T08:29:01.990Z,3.50
2023-01-26T08:31:28.721Z,3.45
2023-01-26T08:33:56.177Z,3.52
2023-01-26T08:36:23.338Z,3.45
2023-01-26T08:38:51.079Z,3.50
2023-01-26T08:41:18.043Z,3.58
2023-01-26T08:43:44.902Z,3.55
2023-01-26T08:46:11.696Z,3.50
2023-01-26T08:48:38.795Z,3.51
2023-01-26T08:51:07.016Z,3.52
2023-01-26T08:53:37.315Z,3.35
2023-01-26T08:56:06.286Z,3.23
2023-01-26T08:58:33.834Z,3.25
2023-01-26T09:01:07.507Z,3.29
2023-01-26T09:03:34.535Z,3.40
2023-01-26T09:06:02.015Z,3.45
2023-01-26T09:08:28.896Z,3.46
2023-01-26T09:10:55.536Z,3.48
2023-01-26T09:13:22.318Z,3.43
2023-01-26T09:15:48.972Z,3.46
2023-01-26T09:18:15.666Z,3.49
2023-01-26T09:20:42.431Z,3.56
2023-01-26T09:23:10.221Z,3.47
2023-01-26T09:25:37.590Z,3.36
2023-01-26T09:28:05.671Z,3.22
2023-01-26T09:30:32.663Z,3.24
2023-01-26T09:33:00.548Z,3.34
2023-01-26T09:35:28.273Z,3.32
2023-01-26T09:37:55.133Z,3.38
2023-01-26T09:40:45.207Z,3.35
2023-01-26T09:43:48.945Z,3.46
2023-01-26T09:46:43.308Z,3.43
2023-01-26T09:49:42.157Z,3.52
2023-01-26T09:52:18.168Z,3.59
2023-01-26T09:54:51.482Z,3.60
2023-01-26T09:57:47.127Z,3.67
2023-01-26T10:00:26.263Z,3.70
2023-01-26T10:03:03.904Z,3.76
2023-01-26T10:05:58.061Z,3.83
2023-01-26T10:08:26.960Z,3.85
2023-01-26T10:11:02.239Z,3.98
2023-01-26T10:13:30.542Z,3.96
2023-01-26T10:16:10.539Z,4.00
2023-01-26T10:19:00.220Z,4.04
2023-01-26T10:21:33.295Z,4.08
2023-01-26T10:24:03.029Z,4.07
2023-01-26T10:26:34.136Z,4.11
2023-01-26T10:29:01.396Z,4.13
2023-01-26T10:31:33.335Z,4.17
2023-01-26T10:34:14.736Z,4.18
2023-01-26T10:36:44.466Z,4.31
2023-01-26T10:39:15.430Z,4.37
2023-01-26T10:42:04.504Z,4.45
2023-01-26T10:44:39.425Z,4.51
2023-01-26T10:47:18.168Z,4.42
2023-01-26T10:49:44.768Z,4.36
2023-01-26T10:52:29.234Z,4.40
2023-01-26T10:55:19.915Z,4.34
2023-01-26T10:57:46.670Z,4.28
2023-01-26T11:00:20.085Z,4.29
2023-01-26T11:02:52.863Z,4.33
2023-01-26T11:05:24.786Z,4.28
2023-01-26T11:08:00.198Z,4.46
2023-01-26T11:10:35.909Z,4.45
2023-01-26T11:13:20.882Z,4.45
2023-01-26T11:16:01.813Z,4.46
2023-01-26T11:18:31.449Z,4.42
2023-01-26T11:21:11.085Z,4.35
2023-01-26T11:24:00.908Z,4.31
2023-01-26T11:26:58.804Z,4.31
2023-01-26T11:29:34.107Z,4.30
2023-01-26T11:32:32.684Z,4.27
2023-01-26T11:35:36.120Z,4.31
2023-01-26T11:38:09.657Z,4.31
2023-01-26T11:40:45.502Z,4.29
2023-01-26T11:43:49.453Z,4.34
2023-01-26T11:46:42.089Z,4.40
2023-01-26T11:49:38.934Z,4.35
2023-01-26T11:52:24.147Z,4.41
2023-01-26T11:55:09.949Z,4.44
2023-01-26T11:57:36.712Z,4.44
2023-01-26T12:00:29.616Z,4.43
2023-01-26T12:03:04.735Z,4.33
2023-01-26T12:05:44.317Z,4.26
2023-01-26T12:08:20.160Z,4.33
2023-01-26T12:11:22.342Z,4.39
2023-01-26T12:14:04.554Z,4.31
2023-01-26T12:16:43.381Z,4.33
2023-01-26T12:19:12.738Z,4.28
2023-01-26T12:21:45.221Z,4.30
2023-01-26T12:25:01.065Z,4.38
2023-01-26T12:27:42.487Z,4.36
2023-01-26T12:30:43.123Z,4.45
2023-01-26T12:33:13.117Z,4.34
2023-01-26T12:36:11.135Z,4.38
2023-01-26T12:38:53.565Z,4.42
2023-01-26T12:41:41.136Z,4.46
2023-01-26T12:44:17.309Z,4.45
2023-01-26T12:46:52.460Z,4.49
2023-01-26T12:49:34.168Z,4.54
2023-01-26T12:52:08.057Z,4.60
2023-01-26T12:54:44.681Z,4.63
2023-01-26T12:57:20.194Z,4.64
2023-01-26T12:59:49.207Z,4.63
2023-01-26T13:02:15.973Z,4.63
2023-01-26T13:04:47.251Z,4.58
2023-01-26T13:07:39.534Z,4.66
2023-01-26T13:10:28.529Z,4.75
2023-01-26T13:12:55.076Z,4.79
2023-01-26T13:15:29.956Z,4.87
2023-01-26T13:18:00.577Z,4.89
2023-01-26T13:20:47.805Z,4.82
2023-01-26T13:23:41.318Z,4.80
2023-01-26T13:26:25.539Z,4.82
2023-01-26T13:28:53.503Z,4.86
2023-01-26T13:31:33.018Z,4.82
2023-01-26T13:34:07.778Z,4.84
2023-01-26T13:36:39.138Z,4.84
2023-01-26T13:39:14.434Z,4.80
2023-01-26T13:41:47.465Z,4.92
2023-01-26T13:44:28.615Z,4.90
2023-01-26T13:47:05.771Z,4.88
2023-01-26T13:49:39.597Z,4.86
2023-01-26T13:52:19.118Z,4.81
2023-01-26T13:54:47.653Z,4.84
2023-01-26T13:57:25.688Z,4.90
2023-01-26T13:59:54.661Z,4.87
2023-01-26T14:02:26.706Z,4.89
2023-01-26T14:04:55.681Z,4.90
2023-01-26T14:07:27.297Z,4.91
2023-01-26T14:09:56.044Z,4.92
2023-01-26T14:12:25.435Z,4.95
2023-01-26T14:14:59.663Z,4.93
2023-01-26T14:17:46.455Z,4.94
2023-01-26T14:20:44.895Z,5.03
2023-01-26T14:23:14.239Z,5.04
2023-01-26T14:25:46.481Z,5.07
2023-01-26T14:28:15.986Z,5.10
2023-01-26T14:30:43.414Z,5.10
2023-01-26T14:33:15.321Z,5.04
2023-01-26T14:35:57.083Z,5.07
2023-01-26T14:38:24.075Z,5.03
2023-01-26T14:40:58.278Z,5.08
2023-01-26T14:43:27.208Z,5.17
2023-01-26T14:46:05.820Z,5.13
2023-01-26T14:48:37.798Z,5.16
2023-01-26T14:51:08.220Z,5.18
2023-01-26T14:53:34.974Z,5.17
2023-01-26T14:56:01.672Z,5.19
2023-01-26T14:58:32.306Z,5.25
2023-01-26T15:01:00.549Z,5.21
2023-01-26T15:03:36.400Z,5.26
2023-01-26T15:06:15.416Z,5.26
2023-01-26T15:08:52.395Z,5.25
2023-01-26T15:11:45.863Z,5.24
2023-01-26T15:14:27.391Z,5.23
2023-01-26T15:16:54.958Z,5.26
2023-01-26T15:19:25.644Z,5.26
2023-01-26T15:21:52.455Z,5.30
2023-01-26T15:24:19.174Z,5.34
2023-01-26T15:26:45.846Z,5.34
2023-01-26T15:29:34.808Z,5.35
2023-01-26T15:32:01.707Z,5.34
2023-01-26T15:34:37.140Z,5.33
2023-01-26T15:37:30.001Z,5.40
2023-01-26T15:39:56.983Z,5.35
2023-01-26T15:42:30.193Z,5.34
2023-01-26T15:44:57.569Z,5.38
2023-01-26T15:47:24.167Z,5.43
2023-01-26T15:49:50.841Z,5.42
2023-01-26T15:52:25.706Z,5.45
2023-01-26T15:54:53.869Z,5.45
2023-01-26T15:57:20.396Z,5.43
2023-01-26T15:59:47.151Z,5.39
2023-01-26T16:02:19.543Z,5.46
2023-01-26T16:04:46.530Z,5.46
2023-01-26T16:07:15.394Z,5.47
2023-01-26T16:09:42.295Z,5.48
2023-01-26T16:12:30.538Z,5.48
2023-01-26T16:14:58.495Z,5.48
2023-01-26T16:17:25.073Z,5.53
2023-01-26T16:19:51.696Z,5.52
2023-01-26T16:22:18.348Z,5.51
2023-01-26T16:24:45.582Z,5.53
2023-01-26T16:27:12.291Z,5.58
2023-01-26T16:29:38.866Z,5.56
2023-01-26T16:32:35.492Z,5.55
2023-01-26T16:35:02.127Z,5.55
2023-01-26T16:37:28.704Z,5.52
2023-01-26T16:39:55.310Z,5.55
2023-01-26T16:42:22.205Z,5.58
2023-01-26T16:44:49.015Z,5.53
2023-01-26T16:47:15.561Z,5.59
2023-01-26T16:49:42.151Z,5.59
2023-01-26T16:52:09.959Z,5.62
2023-01-26T16:54:36.834Z,5.61
2023-01-26T16:57:03.753Z,5.61
2023-01-26T16:59:30.393Z,5.60
2023-01-26T17:01:57.300Z,5.63
2023-01-26T17:04:23.937Z,5.59
2023-01-26T17:06:50.540Z,5.59
2023-01-26T17:09:17.094Z,5.59
2023-01-26T17:11:43.691Z,5.55
2023-01-26T17:14:11.929Z,5.62
2023-01-26T17:16:38.724Z,5.62
2023-01-26T17:19:07.301Z,5.63
2023-01-26T17:21:35.570Z,5.62
2023-01-26T17:24:02.255Z,5.66
2023-01-26T17:26:28.907Z,5.68
2023-01-26T17:28:56.113Z,5.60
2023-01-26T17:31:24.098Z,5.62
2023-01-26T17:33:51.496Z,5.64
2023-01-26T17:36:19.917Z,5.62
2023-01-26T17:38:48.107Z,5.56
2023-01-26T17:41:15.510Z,5.58
2023-01-26T17:43:42.085Z,5.58
2023-01-26T17:46:15.266Z,5.59
2023-01-26T17:48:45.380Z,5.49
2023-01-26T17:51:17.593Z,5.54
2023-01-26T17:53:45.728Z,5.51
2023-01-26T17:56:15.822Z,5.47
2023-01-26T17:58:42.406Z,5.47
2023-01-26T18:01:10.384Z,5.53
2023-01-26T18:03:41.877Z,5.49
2023-01-26T18:06:09.606Z,5.53
2023-01-26T18:08:37.736Z,5.55
2023-01-26T18:11:06.249Z,5.49
2023-01-26T18:13:33.526Z,5.46
2023-01-26T18:16:00.537Z,5.48
2023-01-26T18:18:29.200Z,5.47
2023-01-26T18:20:55.835Z,5.52
2023-01-26T18:23:24.231Z,5.45
2023-01-26T18:25:51.466Z,5.48
2023-01-26T18:28:18.136Z,5.45
2023-01-26T18:30:44.894Z,5.44
2023-01-26T18:33:11.548Z,5.38
2023-01-26T18:35:38.234Z,5.47
2023-01-26T18:38:04.890Z,5.47
2023-01-26T18:40:31.478Z,5.42
2023-01-26T18:42:58.199Z,5.43
2023-01-26T18:45:24.845Z,5.45
2023-01-26T18:47:51.425Z,5.46
2023-01-26T18:50:18.307Z,5.50
2023-01-26T18:52:44.899Z,5.49
2023-01-26T18:55:11.890Z,5.46
2023-01-26T18:57:38.930Z,5.46
2023-01-26T19:00:08.212Z,5.45
2023-01-26T19:02:38.424Z,5.44
2023-01-26T19:05:07.511Z,5.35
2023-01-26T19:07:35.108Z,5.43
2023-01-26T19:10:02.095Z,5.42
2023-01-26T19:12:28.680Z,5.42
2023-01-26T19:14:55.296Z,5.42
2023-01-26T19:17:21.958Z,5.41
2023-01-26T19:19:48.519Z,5.45
2023-01-26T19:22:15.175Z,5.42
2023-01-26T19:24:43.075Z,5.43
2023-01-26T19:27:09.928Z,5.42
2023-01-26T19:29:36.721Z,5.46
2023-01-26T19:32:03.528Z,5.49
2023-01-26T19:34:31.983Z,5.48
2023-01-26T19:36:58.808Z,5.46
2023-01-26T19:39:25.610Z,5.47
2023-01-26T19:41:52.497Z,5.53
2023-01-26T19:44:19.289Z,5.54
2023-01-26T19:46:45.921Z,5.55
2023-01-26T19:49:13.580Z,5.59
2023-01-26T19:51:40.274Z,5.59
2023-01-26T19:54:06.963Z,5.60
2023-01-26T19:56:36.284Z,5.66
2023-01-26T19:59:05.686Z,5.66
2023-01-26T20:01:33.277Z,5.68
2023-01-26T20:04:09.324Z,5.71
2023-01-26T20:06:37.204Z,5.69
2023-01-26T20:09:05.316Z,5.71
2023-01-26T20:11:32.013Z,5.70
2023-01-26T20:14:01.485Z,5.72
2023-01-26T20:16:29.685Z,5.69
2023-01-26T20:18:57.509Z,5.68
2023-01-26T20:21:24.831Z,5.72
2023-01-26T20:23:55.464Z,5.74
2023-01-26T20:26:24.757Z,5.72
2023-01-26T20:28:52.423Z,5.71
2023-01-26T20:31:21.699Z,5.75
2023-01-26T20:33:49.991Z,5.76
2023-01-26T20:36:19.609Z,5.75
2023-01-26T20:38:48.039Z,5.71
2023-01-26T20:41:17.436Z,5.78
2023-01-26T20:43:58.564Z,5.81
2023-01-26T20:46:26.878Z,5.80
2023-01-26T20:48:55.734Z,5.77
2023-01-26T20:51:26.386Z,5.78
2023-01-26T20:53:52.946Z,5.78
2023-01-26T20:56:21.771Z,5.77
2023-01-26T20:58:51.132Z,5.71
2023-01-26T21:01:17.733Z,5.75
2023-01-26T21:03:44.708Z,5.74
2023-01-26T21:06:14.097Z,5.71
2023-01-26T21:08:41.465Z,5.74
2023-01-26T21:11:12.304Z,5.76
2023-01-26T21:13:41.256Z,5.77
2023-01-26T21:16:13.309Z,5.76
2023-01-26T21:18:40.524Z,5.76
2023-01-26T21:21:08.927Z,5.81
2023-01-26T21:23:36.102Z,5.83
2023-01-26T21:26:06.311Z,5.77
2023-01-26T21:28:33.540Z,5.84
2023-01-26T21:31:02.649Z,5.86
2023-01-26T21:33:33.629Z,5.85
2023-01-26T21:36:02.386Z,5.92
2023-01-26T21:38:34.425Z,5.89
2023-01-26T21:41:03.485Z,5.89
2023-01-26T21:43:30.628Z,5.91
2023-01-26T21:45:57.913Z,5.84
2023-01-26T21:48:28.276Z,5.85
2023-01-26T21:51:13.991Z,5.86
2023-01-26T21:53:40.627Z,5.84
2023-01-26T21:56:07.375Z,5.85
2023-01-26T21:58:52.650Z,5.88
2023-01-26T22:01:19.773Z,5.85
2023-01-26T22:03:46.363Z,5.88
2023-01-26T22:06:12.977Z,5.85
2023-01-26T22:08:39.622Z,5.88
2023-01-26T22:11:06.280Z,5.87
2023-01-26T22:13:35.137Z,5.80
2023-01-26T22:16:04.400Z,5.86
2023-01-26T22:18:31.347Z,5.84
2023-01-26T22:20:58.068Z,5.83
2023-01-26T22:23:24.672Z,5.85
2023-01-26T22:25:51.262Z,5.86
2023-01-26T22:28:17.863Z,5.88
2023-01-26T22:30:44.497Z,5.87
2023-01-26T22:33:11.110Z,5.86
2023-01-26T22:35:37.695Z,5.88
2023-01-26T22:38:04.389Z,5.90
2023-01-26T22:40:31.265Z,5.90
2023-01-26T22:42:58.062Z,5.93
2023-01-26T22:45:24.772Z,5.84
2023-01-26T22:47:51.367Z,5.85
2023-01-26T22:50:18.094Z,5.78
2023-01-26T22:52:44.749Z,5.84
2023-01-26T22:55:11.417Z,5.90
2023-01-26T22:57:38.435Z,5.90
2023-01-26T23:00:06.480Z,5.88
2023-01-26T23:02:33.165Z,5.90
2023-01-26T23:04:59.815Z,5.92
2023-01-26T23:07:26.460Z,5.93
2023-01-26T23:09:53.075Z,5.89
2023-01-26T23:12:19.660Z,5.95
2023-01-26T23:14:46.275Z,5.91
2023-01-26T23:17:12.871Z,5.94
2023-01-26T23:19:39.439Z,5.89
2023-01-26T23:22:06.078Z,5.93
2023-01-26T23:24:32.652Z,5.96
2023-01-26T23:26:59.190Z,5.97
2023-01-26T23:29:25.878Z,5.99
2023-01-26T23:31:52.514Z,5.96
2023-01-26T23:34:19.160Z,5.93
2023-01-26T23:36:45.761Z,5.97
2023-01-26T23:39:12.435Z,6.00
2023-01-26T23:41:39.009Z,6.06
2023-01-26T23:44:05.610Z,6.03
2023-01-26T23:46:32.295Z,5.99
2023-01-26T23:48:58.916Z,6.02
2023-01-26T23:51:25.489Z,6.07
2023-01-26T23:53:52.174Z,6.06
2023-01-26T23:56:18.810Z,6.02
2023-01-26T23:58:45.913Z,6.07
